sensor_id;sensor_type;location;lat;lon;timestamp;P1;durP1;ratioP1;P2;durP2;ratioP2
30048;SDS011;16879;50.852;15.602;2023-07-08T00:02:10;5.97;;;4.30;;
30048;SDS011;16879;50.852;15.602;2023-07-08T00:04:37;7.20;;;3.60;;
30048;SDS011;16879;50.852;15.602;2023-07-08T00:07:03;6.07;;;3.97;;
30048;SDS011;16879;50.852;15.602;2023-07-08T00:09:29;6.68;;;3.85;;
30048;SDS011;16879;50.852;15.602;2023-07-08T00:11:56;6.03;;;4.28;;
30048;SDS011;16879;50.852;15.602;2023-07-08T00:14:22;5.75;;;3.97;;
30048;SDS011;16879;50.852;15.602;2023-07-08T00:16:49;4.32;;;3.75;;
30048;SDS011;16879;50.852;15.602;2023-07-08T00:19:16;7.47;;;3.95;;
30048;SDS011;16879;50.852;15.602;2023-07-08T00:21:44;5.85;;;3.60;;
30048;SDS011;16879;50.852;15.602;2023-07-08T00:24:11;7.15;;;3.75;;
30048;SDS011;16879;50.852;15.602;2023-07-08T00:26:37;6.35;;;4.10;;
30048;SDS011;16879;50.852;15.602;2023-07-08T00:29:08;7.65;;;3.45;;
30048;SDS011;16879;50.852;15.602;2023-07-08T00:31:35;6.00;;;4.05;;
30048;SDS011;16879;50.852;15.602;2023-07-08T00:34:01;4.20;;;3.58;;
30048;SDS011;16879;50.852;15.602;2023-07-08T00:36:28;5.28;;;3.85;;
30048;SDS011;16879;50.852;15.602;2023-07-08T00:38:55;4.75;;;3.90;;
30048;SDS011;16879;50.852;15.602;2023-07-08T00:41:32;4.65;;;3.42;;
30048;SDS011;16879;50.852;15.602;2023-07-08T00:43:59;5.88;;;3.33;;
30048;SDS011;16879;50.852;15.602;2023-07-08T00:51:26;4.03;;;3.55;;
30048;SDS011;16879;50.852;15.602;2023-07-08T00:53:53;5.88;;;3.63;;
30048;SDS011;16879;50.852;15.602;2023-07-08T00:56:40;5.32;;;4.10;;
30048;SDS011;16879;50.852;15.602;2023-07-08T00:59:19;6.32;;;3.20;;
30048;SDS011;16879;50.852;15.602;2023-07-08T01:01:45;3.78;;;3.40;;
30048;SDS011;16879;50.852;15.602;2023-07-08T01:04:22;4.70;;;3.38;;
30048;SDS011;16879;50.852;15.602;2023-07-08T01:06:54;5.30;;;4.18;;
30048;SDS011;16879;50.852;15.602;2023-07-08T01:09:24;4.80;;;3.72;;
30048;SDS011;16879;50.852;15.602;2023-07-08T01:11:54;5.35;;;4.38;;
30048;SDS011;16879;50.852;15.602;2023-07-08T01:14:21;4.45;;;4.05;;
30048;SDS011;16879;50.852;15.602;2023-07-08T01:16:47;4.20;;;3.80;;
30048;SDS011;16879;50.852;15.602;2023-07-08T01:19:16;5.20;;;3.70;;
30048;SDS011;16879;50.852;15.602;2023-07-08T01:24:15;7.13;;;4.10;;
30048;SDS011;16879;50.852;15.602;2023-07-08T01:26:42;5.15;;;3.90;;
30048;SDS011;16879;50.852;15.602;2023-07-08T01:29:09;5.30;;;3.42;;
30048;SDS011;16879;50.852;15.602;2023-07-08T01:31:35;3.70;;;2.80;;
30048;SDS011;16879;50.852;15.602;2023-07-08T01:34:02;4.07;;;3.67;;
30048;SDS011;16879;50.852;15.602;2023-07-08T01:36:29;5.70;;;4.35;;
30048;SDS011;16879;50.852;15.602;2023-07-08T01:38:57;4.63;;;3.60;;
30048;SDS011;16879;50.852;15.602;2023-07-08T01:41:23;4.10;;;3.38;;
30048;SDS011;16879;50.852;15.602;2023-07-08T01:43:49;3.97;;;3.42;;
30048;SDS011;16879;50.852;15.602;2023-07-08T01:46:22;3.83;;;3.35;;
30048;SDS011;16879;50.852;15.602;2023-07-08T01:48:54;5.03;;;3.97;;
30048;SDS011;16879;50.852;15.602;2023-07-08T01:51:21;4.97;;;4.43;;
30048;SDS011;16879;50.852;15.602;2023-07-08T01:53:47;6.38;;;4.10;;
30048;SDS011;16879;50.852;15.602;2023-07-08T01:56:14;5.10;;;4.07;;
30048;SDS011;16879;50.852;15.602;2023-07-08T01:58:41;6.55;;;4.40;;
30048;SDS011;16879;50.852;15.602;2023-07-08T02:01:07;6.50;;;4.00;;
30048;SDS011;16879;50.852;15.602;2023-07-08T02:03:34;3.95;;;3.38;;
30048;SDS011;16879;50.852;15.602;2023-07-08T02:06:01;5.70;;;4.13;;
30048;SDS011;16879;50.852;15.602;2023-07-08T02:13:19;5.47;;;4.45;;
30048;SDS011;16879;50.852;15.602;2023-07-08T02:15:46;3.97;;;3.60;;
30048;SDS011;16879;50.852;15.602;2023-07-08T02:18:12;6.05;;;3.85;;
30048;SDS011;16879;50.852;15.602;2023-07-08T02:20:39;4.07;;;3.38;;
30048;SDS011;16879;50.852;15.602;2023-07-08T02:23:05;4.13;;;3.72;;
30048;SDS011;16879;50.852;15.602;2023-07-08T02:25:31;4.10;;;3.70;;
30048;SDS011;16879;50.852;15.602;2023-07-08T02:27:57;5.80;;;4.32;;
30048;SDS011;16879;50.852;15.602;2023-07-08T02:30:23;5.32;;;3.97;;
30048;SDS011;16879;50.852;15.602;2023-07-08T02:32:50;5.13;;;4.55;;
30048;SDS011;16879;50.852;15.602;2023-07-08T02:35:25;5.85;;;4.85;;
30048;SDS011;16879;50.852;15.602;2023-07-08T02:37:52;7.63;;;4.53;;
30048;SDS011;16879;50.852;15.602;2023-07-08T02:40:18;5.53;;;3.95;;
30048;SDS011;16879;50.852;15.602;2023-07-08T02:42:45;4.40;;;4.00;;
30048;SDS011;16879;50.852;15.602;2023-07-08T02:45:11;6.53;;;4.47;;
30048;SDS011;16879;50.852;15.602;2023-07-08T02:47:38;4.40;;;4.00;;
30048;SDS011;16879;50.852;15.602;2023-07-08T02:50:05;5.40;;;4.43;;
30048;SDS011;16879;50.852;15.602;2023-07-08T02:52:32;7.28;;;5.55;;
30048;SDS011;16879;50.852;15.602;2023-07-08T02:54:59;5.75;;;4.50;;
30048;SDS011;16879;50.852;15.602;2023-07-08T02:59:51;4.07;;;3.65;;
30048;SDS011;16879;50.852;15.602;2023-07-08T03:02:17;9.35;;;4.82;;
30048;SDS011;16879;50.852;15.602;2023-07-08T03:04:43;5.63;;;4.30;;
30048;SDS011;16879;50.852;15.602;2023-07-08T03:07:10;9.50;;;4.70;;
30048;SDS011;16879;50.852;15.602;2023-07-08T03:09:39;6.40;;;4.82;;
30048;SDS011;16879;50.852;15.602;2023-07-08T03:12:06;7.05;;;4.70;;
30048;SDS011;16879;50.852;15.602;2023-07-08T03:14:32;6.50;;;4.88;;
30048;SDS011;16879;50.852;15.602;2023-07-08T03:16:58;7.43;;;5.38;;
30048;SDS011;16879;50.852;15.602;2023-07-08T03:19:25;6.18;;;4.85;;
30048;SDS011;16879;50.852;15.602;2023-07-08T03:21:51;7.18;;;5.38;;
30048;SDS011;16879;50.852;15.602;2023-07-08T03:24:17;6.68;;;5.00;;
30048;SDS011;16879;50.852;15.602;2023-07-08T03:26:44;5.10;;;4.45;;
30048;SDS011;16879;50.852;15.602;2023-07-08T03:29:15;5.28;;;4.78;;
30048;SDS011;16879;50.852;15.602;2023-07-08T03:31:41;6.15;;;5.55;;
30048;SDS011;16879;50.852;15.602;2023-07-08T03:34:09;6.20;;;4.88;;
30048;SDS011;16879;50.852;15.602;2023-07-08T03:36:36;7.47;;;4.70;;
30048;SDS011;16879;50.852;15.602;2023-07-08T03:39:14;6.13;;;5.50;;
30048;SDS011;16879;50.852;15.602;2023-07-08T03:41:40;5.78;;;4.72;;
30048;SDS011;16879;50.852;15.602;2023-07-08T03:44:06;5.13;;;4.05;;
30048;SDS011;16879;50.852;15.602;2023-07-08T03:46:33;5.72;;;4.70;;
30048;SDS011;16879;50.852;15.602;2023-07-08T03:48:59;6.80;;;4.88;;
30048;SDS011;16879;50.852;15.602;2023-07-08T03:51:30;5.70;;;5.20;;
30048;SDS011;16879;50.852;15.602;2023-07-08T03:53:57;7.20;;;5.50;;
30048;SDS011;16879;50.852;15.602;2023-07-08T03:56:23;6.63;;;5.45;;
30048;SDS011;16879;50.852;15.602;2023-07-08T03:58:50;5.30;;;4.80;;
30048;SDS011;16879;50.852;15.602;2023-07-08T04:01:16;6.20;;;5.00;;
30048;SDS011;16879;50.852;15.602;2023-07-08T04:03:43;7.38;;;5.78;;
30048;SDS011;16879;50.852;15.602;2023-07-08T04:06:09;6.50;;;4.80;;
30048;SDS011;16879;50.852;15.602;2023-07-08T04:08:35;6.35;;;4.47;;
30048;SDS011;16879;50.852;15.602;2023-07-08T04:11:02;8.25;;;6.38;;
30048;SDS011;16879;50.852;15.602;2023-07-08T04:13:28;5.38;;;4.88;;
30048;SDS011;16879;50.852;15.602;2023-07-08T04:15:55;9.77;;;6.30;;
30048;SDS011;16879;50.852;15.602;2023-07-08T04:18:22;7.63;;;5.72;;
30048;SDS011;16879;50.852;15.602;2023-07-08T04:20:48;7.03;;;5.38;;
30048;SDS011;16879;50.852;15.602;2023-07-08T04:23:20;7.15;;;5.55;;
30048;SDS011;16879;50.852;15.602;2023-07-08T04:25:50;7.20;;;5.75;;
30048;SDS011;16879;50.852;15.602;2023-07-08T04:28:16;8.27;;;5.78;;
30048;SDS011;16879;50.852;15.602;2023-07-08T04:30:43;8.75;;;6.57;;
30048;SDS011;16879;50.852;15.602;2023-07-08T04:33:11;8.13;;;6.10;;
30048;SDS011;16879;50.852;15.602;2023-07-08T04:35:37;5.75;;;4.82;;
30048;SDS011;16879;50.852;15.602;2023-07-08T04:38:07;6.07;;;5.45;;
30048;SDS011;16879;50.852;15.602;2023-07-08T04:40:39;7.97;;;4.90;;
30048;SDS011;16879;50.852;15.602;2023-07-08T04:43:06;11.60;;;5.22;;
30048;SDS011;16879;50.852;15.602;2023-07-08T04:45:32;5.45;;;4.95;;
30048;SDS011;16879;50.852;15.602;2023-07-08T04:47:58;6.40;;;5.75;;
30048;SDS011;16879;50.852;15.602;2023-07-08T04:50:24;6.22;;;5.00;;
30048;SDS011;16879;50.852;15.602;2023-07-08T04:52:50;5.53;;;4.75;;
30048;SDS011;16879;50.852;15.602;2023-07-08T04:55:17;5.93;;;5.30;;
30048;SDS011;16879;50.852;15.602;2023-07-08T04:57:43;6.10;;;4.53;;
30048;SDS011;16879;50.852;15.602;2023-07-08T05:00:15;6.05;;;5.45;;
30048;SDS011;16879;50.852;15.602;2023-07-08T05:02:42;5.78;;;4.53;;
30048;SDS011;16879;50.852;15.602;2023-07-08T05:05:08;5.88;;;5.28;;
30048;SDS011;16879;50.852;15.602;2023-07-08T05:07:34;6.28;;;5.63;;
30048;SDS011;16879;50.852;15.602;2023-07-08T05:10:00;6.70;;;4.68;;
30048;SDS011;16879;50.852;15.602;2023-07-08T05:12:26;5.65;;;4.50;;
30048;SDS011;16879;50.852;15.602;2023-07-08T05:14:53;7.13;;;4.22;;
30048;SDS011;16879;50.852;15.602;2023-07-08T05:17:19;5.50;;;4.47;;
30048;SDS011;16879;50.852;15.602;2023-07-08T05:19:45;8.20;;;5.25;;
30048;SDS011;16879;50.852;15.602;2023-07-08T05:22:14;7.00;;;4.85;;
30048;SDS011;16879;50.852;15.602;2023-07-08T05:24:42;7.20;;;5.03;;
30048;SDS011;16879;50.852;15.602;2023-07-08T05:27:08;9.82;;;5.82;;
30048;SDS011;16879;50.852;15.602;2023-07-08T05:29:34;5.88;;;4.75;;
30048;SDS011;16879;50.852;15.602;2023-07-08T05:32:00;6.80;;;4.95;;
30048;SDS011;16879;50.852;15.602;2023-07-08T05:34:27;11.82;;;6.45;;
30048;SDS011;16879;50.852;15.602;2023-07-08T05:36:53;9.45;;;6.10;;
30048;SDS011;16879;50.852;15.602;2023-07-08T05:39:19;9.48;;;4.95;;
30048;SDS011;16879;50.852;15.602;2023-07-08T05:41:45;5.32;;;4.80;;
30048;SDS011;16879;50.852;15.602;2023-07-08T05:44:12;6.70;;;4.22;;
30048;SDS011;16879;50.852;15.602;2023-07-08T05:46:37;9.00;;;5.18;;
30048;SDS011;16879;50.852;15.602;2023-07-08T05:49:04;9.38;;;6.28;;
30048;SDS011;16879;50.852;15.602;2023-07-08T05:51:30;8.43;;;5.03;;
30048;SDS011;16879;50.852;15.602;2023-07-08T05:53:56;5.25;;;4.75;;
30048;SDS011;16879;50.852;15.602;2023-07-08T05:56:22;8.43;;;5.45;;
30048;SDS011;16879;50.852;15.602;2023-07-08T05:58:48;7.13;;;4.85;;
30048;SDS011;16879;50.852;15.602;2023-07-08T06:01:14;6.82;;;4.63;;
30048;SDS011;16879;50.852;15.602;2023-07-08T06:03:40;7.78;;;5.20;;
30048;SDS011;16879;50.852;15.602;2023-07-08T06:06:06;7.25;;;4.82;;
30048;SDS011;16879;50.852;15.602;2023-07-08T06:08:32;4.63;;;4.15;;
30048;SDS011;16879;50.852;15.602;2023-07-08T06:10:59;5.25;;;4.00;;
30048;SDS011;16879;50.852;15.602;2023-07-08T06:13:25;6.10;;;4.43;;
30048;SDS011;16879;50.852;15.602;2023-07-08T06:15:51;7.05;;;4.45;;
30048;SDS011;16879;50.852;15.602;2023-07-08T06:18:18;6.10;;;4.75;;
30048;SDS011;16879;50.852;15.602;2023-07-08T06:20:55;5.95;;;4.57;;
30048;SDS011;16879;50.852;15.602;2023-07-08T06:23:22;4.88;;;4.30;;
30048;SDS011;16879;50.852;15.602;2023-07-08T06:25:48;4.22;;;3.83;;
30048;SDS011;16879;50.852;15.602;2023-07-08T06:28:15;7.03;;;4.53;;
30048;SDS011;16879;50.852;15.602;2023-07-08T06:30:41;5.05;;;3.85;;
30048;SDS011;16879;50.852;15.602;2023-07-08T06:33:07;8.68;;;4.60;;
30048;SDS011;16879;50.852;15.602;2023-07-08T06:35:33;4.43;;;4.00;;
30048;SDS011;16879;50.852;15.602;2023-07-08T06:37:59;8.88;;;5.00;;
30048;SDS011;16879;50.852;15.602;2023-07-08T06:40:25;8.50;;;4.80;;
30048;SDS011;16879;50.852;15.602;2023-07-08T06:42:51;6.45;;;5.00;;
30048;SDS011;16879;50.852;15.602;2023-07-08T06:45:17;5.80;;;4.85;;
30048;SDS011;16879;50.852;15.602;2023-07-08T06:47:44;5.90;;;4.85;;
30048;SDS011;16879;50.852;15.602;2023-07-08T06:50:11;5.70;;;4.38;;
30048;SDS011;16879;50.852;15.602;2023-07-08T06:52:37;7.78;;;4.60;;
30048;SDS011;16879;50.852;15.602;2023-07-08T06:55:05;9.23;;;4.03;;
30048;SDS011;16879;50.852;15.602;2023-07-08T06:57:33;5.25;;;4.45;;
30048;SDS011;16879;50.852;15.602;2023-07-08T06:59:59;4.68;;;3.63;;
30048;SDS011;16879;50.852;15.602;2023-07-08T07:02:26;4.75;;;4.28;;
30048;SDS011;16879;50.852;15.602;2023-07-08T07:04:52;4.38;;;3.92;;
30048;SDS011;16879;50.852;15.602;2023-07-08T07:09:46;7.95;;;3.92;;
30048;SDS011;16879;50.852;15.602;2023-07-08T07:12:12;5.20;;;4.22;;
30048;SDS011;16879;50.852;15.602;2023-07-08T07:14:38;5.25;;;4.43;;
30048;SDS011;16879;50.852;15.602;2023-07-08T07:17:04;5.15;;;4.20;;
30048;SDS011;16879;50.852;15.602;2023-07-08T07:19:30;6.28;;;4.40;;
30048;SDS011;16879;50.852;15.602;2023-07-08T07:21:57;6.65;;;4.18;;
30048;SDS011;16879;50.852;15.602;2023-07-08T07:24:23;3.72;;;3.40;;
30048;SDS011;16879;50.852;15.602;2023-07-08T07:26:50;4.78;;;4.15;;
30048;SDS011;16879;50.852;15.602;2023-07-08T07:29:16;5.85;;;4.93;;
30048;SDS011;16879;50.852;15.602;2023-07-08T07:31:43;9.70;;;4.53;;
30048;SDS011;16879;50.852;15.602;2023-07-08T07:34:09;9.52;;;4.53;;
30048;SDS011;16879;50.852;15.602;2023-07-08T07:36:37;5.10;;;4.22;;
30048;SDS011;16879;50.852;15.602;2023-07-08T07:39:03;5.90;;;4.70;;
30048;SDS011;16879;50.852;15.602;2023-07-08T07:41:29;7.53;;;4.28;;
30048;SDS011;16879;50.852;15.602;2023-07-08T07:43:55;6.13;;;4.32;;
30048;SDS011;16879;50.852;15.602;2023-07-08T07:46:21;16.65;;;4.78;;
30048;SDS011;16879;50.852;15.602;2023-07-08T07:48:48;5.60;;;3.83;;
30048;SDS011;16879;50.852;15.602;2023-07-08T07:51:14;4.95;;;3.95;;
30048;SDS011;16879;50.852;15.602;2023-07-08T07:53:40;8.93;;;4.05;;
30048;SDS011;16879;50.852;15.602;2023-07-08T07:56:07;5.03;;;3.92;;
30048;SDS011;16879;50.852;15.602;2023-07-08T07:58:33;5.45;;;4.28;;
30048;SDS011;16879;50.852;15.602;2023-07-08T08:00:59;6.07;;;4.45;;
30048;SDS011;16879;50.852;15.602;2023-07-08T08:03:26;5.13;;;4.03;;
30048;SDS011;16879;50.852;15.602;2023-07-08T08:05:52;11.07;;;4.40;;
30048;SDS011;16879;50.852;15.602;2023-07-08T08:08:18;14.45;;;4.60;;
30048;SDS011;16879;50.852;15.602;2023-07-08T08:10:44;13.70;;;4.78;;
30048;SDS011;16879;50.852;15.602;2023-07-08T08:13:10;10.63;;;4.25;;
30048;SDS011;16879;50.852;15.602;2023-07-08T08:15:37;5.43;;;3.50;;
30048;SDS011;16879;50.852;15.602;2023-07-08T08:18:03;6.28;;;3.60;;
30048;SDS011;16879;50.852;15.602;2023-07-08T08:20:29;6.75;;;3.30;;
30048;SDS011;16879;50.852;15.602;2023-07-08T08:22:55;5.80;;;3.38;;
30048;SDS011;16879;50.852;15.602;2023-07-08T08:25:22;6.00;;;3.28;;
30048;SDS011;16879;50.852;15.602;2023-07-08T08:27:49;4.35;;;3.95;;
30048;SDS011;16879;50.852;15.602;2023-07-08T08:30:16;5.00;;;3.47;;
30048;SDS011;16879;50.852;15.602;2023-07-08T08:32:42;4.78;;;2.97;;
30048;SDS011;16879;50.852;15.602;2023-07-08T08:35:08;5.85;;;3.40;;
30048;SDS011;16879;50.852;15.602;2023-07-08T08:37:34;7.35;;;3.97;;
30048;SDS011;16879;50.852;15.602;2023-07-08T08:40:00;4.03;;;3.55;;
30048;SDS011;16879;50.852;15.602;2023-07-08T08:44:59;3.42;;;2.92;;
30048;SDS011;16879;50.852;15.602;2023-07-08T08:50:01;3.38;;;3.00;;
30048;SDS011;16879;50.852;15.602;2023-07-08T08:52:30;6.28;;;3.50;;
30048;SDS011;16879;50.852;15.602;2023-07-08T08:54:56;5.85;;;3.58;;
30048;SDS011;16879;50.852;15.602;2023-07-08T08:57:27;4.57;;;2.83;;
30048;SDS011;16879;50.852;15.602;2023-07-08T09:00:00;4.15;;;3.50;;
30048;SDS011;16879;50.852;15.602;2023-07-08T09:05:03;5.88;;;3.25;;
30048;SDS011;16879;50.852;15.602;2023-07-08T09:07:36;3.72;;;3.05;;
30048;SDS011;16879;50.852;15.602;2023-07-08T09:12:59;4.40;;;3.25;;
30048;SDS011;16879;50.852;15.602;2023-07-08T09:15:28;3.85;;;3.00;;
30048;SDS011;16879;50.852;15.602;2023-07-08T09:17:53;3.85;;;2.67;;
30048;SDS011;16879;50.852;15.602;2023-07-08T09:20:25;3.83;;;2.88;;
30048;SDS011;16879;50.852;15.602;2023-07-08T09:22:59;2.42;;;2.22;;
30048;SDS011;16879;50.852;15.602;2023-07-08T09:28:12;4.50;;;3.20;;
30048;SDS011;16879;50.852;15.602;2023-07-08T09:30:39;3.63;;;2.92;;
30048;SDS011;16879;50.852;15.602;2023-07-08T09:33:06;3.33;;;2.60;;
30048;SDS011;16879;50.852;15.602;2023-07-08T09:35:46;3.97;;;2.90;;
30048;SDS011;16879;50.852;15.602;2023-07-08T09:38:14;3.22;;;2.85;;
30048;SDS011;16879;50.852;15.602;2023-07-08T09:40:43;3.60;;;3.30;;
30048;SDS011;16879;50.852;15.602;2023-07-08T09:45:49;3.83;;;2.63;;
30048;SDS011;16879;50.852;15.602;2023-07-08T09:48:18;5.07;;;2.78;;
30048;SDS011;16879;50.852;15.602;2023-07-08T09:50:51;2.90;;;2.63;;
30048;SDS011;16879;50.852;15.602;2023-07-08T09:53:17;6.05;;;3.30;;
30048;SDS011;16879;50.852;15.602;2023-07-08T09:55:44;4.38;;;2.70;;
30048;SDS011;16879;50.852;15.602;2023-07-08T09:58:53;2.85;;;2.55;;
30048;SDS011;16879;50.852;15.602;2023-07-08T10:01:10;3.63;;;3.08;;
30048;SDS011;16879;50.852;15.602;2023-07-08T10:03:37;2.67;;;2.30;;
30048;SDS011;16879;50.852;15.602;2023-07-08T10:06:06;2.63;;;2.42;;
30048;SDS011;16879;50.852;15.602;2023-07-08T10:09:03;3.17;;;2.40;;
30048;SDS011;16879;50.852;15.602;2023-07-08T10:11:39;4.10;;;2.80;;
30048;SDS011;16879;50.852;15.602;2023-07-08T10:14:09;3.15;;;2.85;;
30048;SDS011;16879;50.852;15.602;2023-07-08T10:16:37;5.32;;;3.35;;
30048;SDS011;16879;50.852;15.602;2023-07-08T10:19:13;3.17;;;2.88;;
30048;SDS011;16879;50.852;15.602;2023-07-08T10:22:05;4.03;;;3.08;;
30048;SDS011;16879;50.852;15.602;2023-07-08T10:24:51;5.82;;;3.53;;
30048;SDS011;16879;50.852;15.602;2023-07-08T10:30:19;3.20;;;2.83;;
30048;SDS011;16879;50.852;15.602;2023-07-08T10:32:53;3.70;;;3.10;;
30048;SDS011;16879;50.852;15.602;2023-07-08T10:35:27;4.43;;;3.30;;
30048;SDS011;16879;50.852;15.602;2023-07-08T10:40:46;7.43;;;3.90;;
30048;SDS011;16879;50.852;15.602;2023-07-08T10:50:44;4.07;;;3.15;;
30048;SDS011;16879;50.852;15.602;2023-07-08T10:55:59;4.15;;;3.28;;
30048;SDS011;16879;50.852;15.602;2023-07-08T10:58:33;5.45;;;3.30;;
30048;SDS011;16879;50.852;15.602;2023-07-08T11:06:30;3.72;;;2.90;;
30048;SDS011;16879;50.852;15.602;2023-07-08T11:09:01;4.00;;;3.05;;
30048;SDS011;16879;50.852;15.602;2023-07-08T11:17:19;4.38;;;2.92;;
30048;SDS011;16879;50.852;15.602;2023-07-08T11:19:53;3.40;;;2.90;;
30048;SDS011;16879;50.852;15.602;2023-07-08T11:22:21;3.17;;;2.80;;
30048;SDS011;16879;50.852;15.602;2023-07-08T11:24:50;3.33;;;3.03;;
30048;SDS011;16879;50.852;15.602;2023-07-08T11:27:26;3.97;;;3.55;;
30048;SDS011;16879;50.852;15.602;2023-07-08T11:32:37;3.60;;;3.08;;
30048;SDS011;16879;50.852;15.602;2023-07-08T11:35:18;3.75;;;3.35;;
30048;SDS011;16879;50.852;15.602;2023-07-08T11:37:51;3.50;;;3.20;;
30048;SDS011;16879;50.852;15.602;2023-07-08T11:40:23;2.97;;;2.78;;
30048;SDS011;16879;50.852;15.602;2023-07-08T11:43:00;3.92;;;3.25;;
30048;SDS011;16879;50.852;15.602;2023-07-08T11:45:31;3.25;;;2.95;;
30048;SDS011;16879;50.852;15.602;2023-07-08T11:48:22;3.55;;;3.03;;
30048;SDS011;16879;50.852;15.602;2023-07-08T11:50:50;4.45;;;3.17;;
30048;SDS011;16879;50.852;15.602;2023-07-08T11:57:06;9.00;;;3.50;;
30048;SDS011;16879;50.852;15.602;2023-07-08T12:03:19;9.27;;;3.25;;
30048;SDS011;16879;50.852;15.602;2023-07-08T12:09:00;4.00;;;2.97;;
30048;SDS011;16879;50.852;15.602;2023-07-08T12:12:14;3.78;;;3.42;;
30048;SDS011;16879;50.852;15.602;2023-07-08T12:14:56;4.30;;;3.33;;
30048;SDS011;16879;50.852;15.602;2023-07-08T12:17:34;4.20;;;2.75;;
30048;SDS011;16879;50.852;15.602;2023-07-08T12:20:01;4.47;;;3.05;;
30048;SDS011;16879;50.852;15.602;2023-07-08T12:22:31;4.00;;;3.33;;
30048;SDS011;16879;50.852;15.602;2023-07-08T12:25:01;3.05;;;2.75;;
30048;SDS011;16879;50.852;15.602;2023-07-08T12:27:30;4.72;;;3.20;;
30048;SDS011;16879;50.852;15.602;2023-07-08T12:30:05;2.90;;;2.65;;
30048;SDS011;16879;50.852;15.602;2023-07-08T12:33:35;4.97;;;3.25;;
30048;SDS011;16879;50.852;15.602;2023-07-08T12:36:28;3.30;;;2.75;;
30048;SDS011;16879;50.852;15.602;2023-07-08T12:42:45;5.05;;;3.25;;
30048;SDS011;16879;50.852;15.602;2023-07-08T12:46:14;4.05;;;3.28;;
30048;SDS011;16879;50.852;15.602;2023-07-08T12:49:38;4.38;;;2.80;;
30048;SDS011;16879;50.852;15.602;2023-07-08T12:52:48;4.45;;;3.20;;
30048;SDS011;16879;50.852;15.602;2023-07-08T12:55:49;3.63;;;2.42;;
30048;SDS011;16879;50.852;15.602;2023-07-08T12:58:28;3.78;;;2.88;;
30048;SDS011;16879;50.852;15.602;2023-07-08T13:01:29;4.07;;;3.28;;
30048;SDS011;16879;50.852;15.602;2023-07-08T13:04:28;10.65;;;3.53;;
30048;SDS011;16879;50.852;15.602;2023-07-08T13:07:47;3.60;;;3.30;;
30048;SDS011;16879;50.852;15.602;2023-07-08T13:10:19;6.45;;;3.42;;
30048;SDS011;16879;50.852;15.602;2023-07-08T13:12:57;3.90;;;2.95;;
30048;SDS011;16879;50.852;15.602;2023-07-08T13:15:25;4.78;;;3.25;;
30048;SDS011;16879;50.852;15.602;2023-07-08T13:17:59;3.53;;;3.10;;
30048;SDS011;16879;50.852;15.602;2023-07-08T13:26:32;3.25;;;3.00;;
30048;SDS011;16879;50.852;15.602;2023-07-08T13:36:10;3.13;;;2.83;;
30048;SDS011;16879;50.852;15.602;2023-07-08T13:46:24;3.80;;;2.85;;
30048;SDS011;16879;50.852;15.602;2023-07-08T13:56:23;2.92;;;2.67;;
30048;SDS011;16879;50.852;15.602;2023-07-08T13:59:46;3.92;;;2.83;;
30048;SDS011;16879;50.852;15.602;2023-07-08T14:03:04;5.38;;;3.20;;
30048;SDS011;16879;50.852;15.602;2023-07-08T14:12:25;4.10;;;3.45;;
30048;SDS011;16879;50.852;15.602;2023-07-08T14:15:42;3.40;;;2.92;;
30048;SDS011;16879;50.852;15.602;2023-07-08T14:18:40;3.20;;;2.50;;
30048;SDS011;16879;50.852;15.602;2023-07-08T14:36:11;3.67;;;2.80;;
30048;SDS011;16879;50.852;15.602;2023-07-08T14:45:20;3.17;;;2.88;;
30048;SDS011;16879;50.852;15.602;2023-07-08T14:48:42;5.95;;;3.35;;
30048;SDS011;16879;50.852;15.602;2023-07-08T14:51:15;5.57;;;2.80;;
30048;SDS011;16879;50.852;15.602;2023-07-08T14:54:20;3.95;;;2.88;;
30048;SDS011;16879;50.852;15.602;2023-07-08T14:57:15;3.03;;;2.60;;
30048;SDS011;16879;50.852;15.602;2023-07-08T15:00:25;3.40;;;2.90;;
30048;SDS011;16879;50.852;15.602;2023-07-08T15:02:58;5.65;;;3.13;;
30048;SDS011;16879;50.852;15.602;2023-07-08T15:05:38;4.50;;;2.63;;
30048;SDS011;16879;50.852;15.602;2023-07-08T15:09:02;3.22;;;2.80;;
30048;SDS011;16879;50.852;15.602;2023-07-08T15:14:29;2.70;;;2.50;;
30048;SDS011;16879;50.852;15.602;2023-07-08T15:17:19;4.05;;;2.70;;
30048;SDS011;16879;50.852;15.602;2023-07-08T15:20:06;3.35;;;2.55;;
30048;SDS011;16879;50.852;15.602;2023-07-08T15:22:58;3.83;;;3.10;;
30048;SDS011;16879;50.852;15.602;2023-07-08T15:25:41;3.70;;;3.35;;
30048;SDS011;16879;50.852;15.602;2023-07-08T15:41:03;4.85;;;3.10;;
30048;SDS011;16879;50.852;15.602;2023-07-08T15:43:33;3.38;;;3.10;;
30048;SDS011;16879;50.852;15.602;2023-07-08T15:49:40;5.63;;;3.08;;
30048;SDS011;16879;50.852;15.602;2023-07-08T15:55:51;3.58;;;2.78;;
30048;SDS011;16879;50.852;15.602;2023-07-08T16:05:56;3.22;;;2.65;;
30048;SDS011;16879;50.852;15.602;2023-07-08T16:12:45;5.38;;;4.80;;
30048;SDS011;16879;50.852;15.602;2023-07-08T16:21:55;3.17;;;2.97;;
30048;SDS011;16879;50.852;15.602;2023-07-08T16:24:21;2.88;;;2.50;;
30048;SDS011;16879;50.852;15.602;2023-07-08T16:26:48;3.20;;;2.85;;
30048;SDS011;16879;50.852;15.602;2023-07-08T16:29:15;5.00;;;2.80;;
30048;SDS011;16879;50.852;15.602;2023-07-08T16:31:41;3.58;;;2.85;;
30048;SDS011;16879;50.852;15.602;2023-07-08T16:34:08;3.20;;;2.90;;
30048;SDS011;16879;50.852;15.602;2023-07-08T16:36:36;3.53;;;2.60;;
30048;SDS011;16879;50.852;15.602;2023-07-08T16:39:03;4.13;;;3.72;;
30048;SDS011;16879;50.852;15.602;2023-07-08T16:41:34;5.30;;;2.85;;
30048;SDS011;16879;50.852;15.602;2023-07-08T16:44:12;2.97;;;2.78;;
30048;SDS011;16879;50.852;15.602;2023-07-08T16:46:41;3.13;;;2.83;;
30048;SDS011;16879;50.852;15.602;2023-07-08T16:49:08;3.42;;;2.78;;
30048;SDS011;16879;50.852;15.602;2023-07-08T16:51:34;2.72;;;2.53;;
30048;SDS011;16879;50.852;15.602;2023-07-08T16:54:08;4.53;;;3.05;;
30048;SDS011;16879;50.852;15.602;2023-07-08T16:56:35;2.90;;;2.70;;
30048;SDS011;16879;50.852;15.602;2023-07-08T16:59:01;3.50;;;3.17;;
30048;SDS011;16879;50.852;15.602;2023-07-08T17:01:28;4.40;;;2.72;;
30048;SDS011;16879;50.852;15.602;2023-07-08T17:03:54;3.30;;;2.55;;
30048;SDS011;16879;50.852;15.602;2023-07-08T17:06:21;2.85;;;2.65;;
30048;SDS011;16879;50.852;15.602;2023-07-08T17:08:48;2.83;;;2.63;;
30048;SDS011;16879;50.852;15.602;2023-07-08T17:11:14;3.38;;;3.08;;
30048;SDS011;16879;50.852;15.602;2023-07-08T17:13:40;3.28;;;2.80;;
30048;SDS011;16879;50.852;15.602;2023-07-08T17:16:12;3.05;;;2.67;;
30048;SDS011;16879;50.852;15.602;2023-07-08T17:18:47;3.22;;;2.92;;
30048;SDS011;16879;50.852;15.602;2023-07-08T17:21:15;2.95;;;2.50;;
30048;SDS011;16879;50.852;15.602;2023-07-08T17:23:43;5.72;;;3.08;;
30048;SDS011;16879;50.852;15.602;2023-07-08T17:26:10;3.03;;;2.72;;
30048;SDS011;16879;50.852;15.602;2023-07-08T17:28:38;3.05;;;2.85;;
30048;SDS011;16879;50.852;15.602;2023-07-08T17:31:05;3.00;;;2.70;;
30048;SDS011;16879;50.852;15.602;2023-07-08T17:33:39;4.30;;;3.03;;
30048;SDS011;16879;50.852;15.602;2023-07-08T17:36:09;3.30;;;3.00;;
30048;SDS011;16879;50.852;15.602;2023-07-08T17:38:46;2.97;;;2.72;;
30048;SDS011;16879;50.852;15.602;2023-07-08T17:41:14;3.65;;;3.20;;
30048;SDS011;16879;50.852;15.602;2023-07-08T17:43:40;4.93;;;3.38;;
30048;SDS011;16879;50.852;15.602;2023-07-08T17:46:10;7.65;;;3.80;;
30048;SDS011;16879;50.852;15.602;2023-07-08T17:48:37;3.70;;;2.85;;
30048;SDS011;16879;50.852;15.602;2023-07-08T17:51:04;4.70;;;3.28;;
30048;SDS011;16879;50.852;15.602;2023-07-08T17:53:31;5.45;;;4.30;;